sensor_id;sensor_type;location;lat;lon;timestamp;pressure;altitude;pressure_sealevel;temperature;humidity
54022;BME280;39936;51.058;17.220;2023-02-02T00:02:28;100944.95;;;2.24;100.00
54022;BME280;39936;51.058;17.220;2023-02-02T00:05:53;100940.23;;;2.24;100.00
54022;BME280;39936;51.058;17.220;2023-02-02T00:09:06;100935.74;;;2.22;100.00
54022;BME280;39936;51.058;17.220;2023-02-02T00:12:32;100940.60;;;2.19;100.00
54022;BME280;39936;51.058;17.220;2023-02-02T00:16:52;100942.63;;;2.18;100.00
54022;BME280;39936;51.058;17.220;2023-02-02T00:20:01;100949.59;;;2.15;100.00
54022;BME280;39936;51.058;17.220;2023-02-02T00:23:08;100946.84;;;2.16;100.00
54022;BME280;39936;51.058;17.220;2023-02-02T00:26:16;100944.52;;;2.16;100.00
54022;BME280;39936;51.058;17.220;2023-02-02T00:30:08;100949.41;;;2.17;100.00
54022;BME280;39936;51.058;17.220;2023-02-02T00:33:24;100950.44;;;2.18;100.00
54022;BME280;39936;51.058;17.220;2023-02-02T00:36:52;100953.23;;;2.19;100.00
54022;BME280;39936;51.058;17.220;2023-02-02T00:40:11;100955.59;;;2.18;100.00
54022;BME280;39936;51.058;17.220;2023-02-02T00:43:16;100958.48;;;2.20;100.00
54022;BME280;39936;51.058;17.220;2023-02-02T00:46:41;100961.53;;;2.18;100.00
54022;BME280;39936;51.058;17.220;2023-02-02T00:49:49;100972.02;;;2.19;100.00
54022;BME280;39936;51.058;17.220;2023-02-02T00:53:26;100971.25;;;2.20;100.00
54022;BME280;39936;51.058;17.220;2023-02-02T00:57:23;100970.99;;;2.20;100.00
54022;BME280;39936;51.058;17.220;2023-02-02T01:00:34;100964.48;;;2.21;100.00
54022;BME280;39936;51.058;17.220;2023-02-02T01:03:43;100964.49;;;2.22;100.00
54022;BME280;39936;51.058;17.220;2023-02-02T01:07:15;100965.92;;;2.23;100.00
54022;BME280;39936;51.058;17.220;2023-02-02T01:10:46;100962.23;;;2.28;100.00
54022;BME280;39936;51.058;17.220;2023-02-02T01:13:58;100966.15;;;2.27;100.00
54022;BME280;39936;51.058;17.220;2023-02-02T01:17:21;100959.13;;;2.31;100.00
54022;BME280;39936;51.058;17.220;2023-02-02T01:20:28;100964.79;;;2.32;100.00
54022;BME280;39936;51.058;17.220;2023-02-02T01:24:31;100789.86;;;1.06;100.00
54022;BME280;39936;51.058;17.220;2023-02-02T01:27:57;100970.68;;;2.33;100.00
54022;BME280;39936;51.058;17.220;2023-02-02T01:31:42;100965.80;;;2.33;100.00
54022;BME280;39936;51.058;17.220;2023-02-02T01:35:01;100957.48;;;2.34;100.00
54022;BME280;39936;51.058;17.220;2023-02-02T01:38:47;100959.03;;;2.38;100.00
54022;BME280;39936;51.058;17.220;2023-02-02T01:41:56;100955.46;;;2.43;100.00
54022;BME280;39936;51.058;17.220;2023-02-02T01:46:13;100961.68;;;2.42;100.00
54022;BME280;39936;51.058;17.220;2023-02-02T01:49:23;100956.52;;;2.42;100.00
54022;BME280;39936;51.058;17.220;2023-02-02T01:52:44;100955.92;;;2.45;100.00
54022;BME280;39936;51.058;17.220;2023-02-02T01:56:36;100945.55;;;2.45;100.00
54022;BME280;39936;51.058;17.220;2023-02-02T01:59:57;100937.85;;;2.43;100.00
54022;BME280;39936;51.058;17.220;2023-02-02T02:04:10;100952.36;;;2.50;100.00
54022;BME280;39936;51.058;17.220;2023-02-02T02:07:49;100957.78;;;2.49;100.00
54022;BME280;39936;51.058;17.220;2023-02-02T02:11:06;100949.98;;;2.52;100.00
54022;BME280;39936;51.058;17.220;2023-02-02T02:14:49;100952.57;;;2.52;100.00
54022;BME280;39936;51.058;17.220;2023-02-02T02:18:19;100957.27;;;2.57;100.00
54022;BME280;39936;51.058;17.220;2023-02-02T02:21:39;100955.24;;;2.62;100.00
54022;BME280;39936;51.058;17.220;2023-02-02T02:40:05;100957.38;;;2.61;100.00
54022;BME280;39936;51.058;17.220;2023-02-02T02:43:32;100954.29;;;2.57;100.00
54022;BME280;39936;51.058;17.220;2023-02-02T02:46:43;100967.97;;;2.60;100.00
54022;BME280;39936;51.058;17.220;2023-02-02T02:49:52;100957.96;;;2.61;100.00
54022;BME280;39936;51.058;17.220;2023-02-02T02:53:10;100953.38;;;2.62;100.00
54022;BME280;39936;51.058;17.220;2023-02-02T03:00:30;100949.34;;;2.66;100.00
54022;BME280;39936;51.058;17.220;2023-02-02T03:11:35;100932.87;;;2.70;99.91
54022;BME280;39936;51.058;17.220;2023-02-02T03:14:54;100928.16;;;2.74;99.03
54022;BME280;39936;51.058;17.220;2023-02-02T03:18:00;100918.79;;;2.75;98.71
54022;BME280;39936;51.058;17.220;2023-02-02T03:22:00;100918.90;;;2.79;97.91
54022;BME280;39936;51.058;17.220;2023-02-02T03:25:08;100899.72;;;2.80;97.65
54022;BME280;39936;51.058;17.220;2023-02-02T03:28:32;100894.14;;;2.83;96.85
54022;BME280;39936;51.058;17.220;2023-02-02T03:31:49;100906.63;;;2.84;96.70
54022;BME280;39936;51.058;17.220;2023-02-02T03:35:06;100893.25;;;2.86;95.72
54022;BME280;39936;51.058;17.220;2023-02-02T03:38:34;100877.71;;;2.88;95.64
54022;BME280;39936;51.058;17.220;2023-02-02T03:42:16;100883.41;;;2.83;95.83
54022;BME280;39936;51.058;17.220;2023-02-02T03:45:26;100861.73;;;2.79;95.30
54022;BME280;39936;51.058;17.220;2023-02-02T03:48:58;100862.97;;;2.84;94.28
54022;BME280;39936;51.058;17.220;2023-02-02T03:52:19;100861.47;;;2.82;94.11
54022;BME280;39936;51.058;17.220;2023-02-02T03:55:25;100842.77;;;2.77;93.75
54022;BME280;39936;51.058;17.220;2023-02-02T03:58:36;100859.57;;;2.86;92.96
54022;BME280;39936;51.058;17.220;2023-02-02T04:02:38;100845.85;;;2.86;92.63
54022;BME280;39936;51.058;17.220;2023-02-02T04:06:14;100850.11;;;2.85;92.56
54022;BME280;39936;51.058;17.220;2023-02-02T04:09:45;100845.99;;;2.87;92.46
54022;BME280;39936;51.058;17.220;2023-02-02T04:12:52;100843.64;;;2.89;92.37
54022;BME280;39936;51.058;17.220;2023-02-02T04:16:18;100823.76;;;2.91;91.93
54022;BME280;39936;51.058;17.220;2023-02-02T04:19:24;100846.83;;;2.95;92.04
54022;BME280;39936;51.058;17.220;2023-02-02T04:22:33;100836.27;;;2.95;92.37
54022;BME280;39936;51.058;17.220;2023-02-02T04:26:05;100837.75;;;3.00;91.61
54022;BME280;39936;51.058;17.220;2023-02-02T04:29:13;100839.88;;;3.04;91.70
54022;BME280;39936;51.058;17.220;2023-02-02T04:32:24;100839.20;;;3.01;91.86
54022;BME280;39936;51.058;17.220;2023-02-02T04:36:23;100828.76;;;3.06;91.57
54022;BME280;39936;51.058;17.220;2023-02-02T04:39:32;100831.86;;;3.08;90.64
54022;BME280;39936;51.058;17.220;2023-02-02T04:42:49;100815.36;;;3.15;89.87
54022;BME280;39936;51.058;17.220;2023-02-02T04:45:57;100828.32;;;3.20;89.80
54022;BME280;39936;51.058;17.220;2023-02-02T04:49:51;100817.63;;;3.21;89.25
54022;BME280;39936;51.058;17.220;2023-02-02T04:53:14;100825.69;;;3.25;88.92
54022;BME280;39936;51.058;17.220;2023-02-02T04:56:42;100829.72;;;3.23;89.28
54022;BME280;39936;51.058;17.220;2023-02-02T04:59:54;100823.55;;;3.23;89.18
54022;BME280;39936;51.058;17.220;2023-02-02T05:03:23;100810.00;;;3.27;88.68
54022;BME280;39936;51.058;17.220;2023-02-02T05:06:31;100826.10;;;3.33;88.17
54022;BME280;39936;51.058;17.220;2023-02-02T05:09:39;100811.45;;;3.31;88.98
54022;BME280;39936;51.058;17.220;2023-02-02T05:12:42;100820.55;;;3.29;89.10
54022;BME280;39936;51.058;17.220;2023-02-02T05:16:07;100817.12;;;3.27;89.45
54022;BME280;39936;51.058;17.220;2023-02-02T05:19:34;100816.05;;;3.32;88.70
54022;BME280;39936;51.058;17.220;2023-02-02T05:22:52;100823.16;;;3.35;88.87
54022;BME280;39936;51.058;17.220;2023-02-02T05:26:51;100804.20;;;3.33;88.80
54022;BME280;39936;51.058;17.220;2023-02-02T05:30:24;100824.28;;;3.39;88.69
54022;BME280;39936;51.058;17.220;2023-02-02T05:34:04;100822.45;;;3.38;88.91
54022;BME280;39936;51.058;17.220;2023-02-02T05:37:32;100813.61;;;3.41;88.73
54022;BME280;39936;51.058;17.220;2023-02-02T05:40:51;100818.89;;;3.45;88.25
54022;BME280;39936;51.058;17.220;2023-02-02T05:44:32;100795.40;;;3.37;88.44
54022;BME280;39936;51.058;17.220;2023-02-02T05:47:40;100828.12;;;3.43;88.51
54022;BME280;39936;51.058;17.220;2023-02-02T05:51:24;100837.37;;;3.39;88.94
54022;BME280;39936;51.058;17.220;2023-02-02T05:54:49;100831.45;;;3.41;89.48
54022;BME280;39936;51.058;17.220;2023-02-02T05:57:54;100830.24;;;3.40;90.00
54022;BME280;39936;51.058;17.220;2023-02-02T06:01:13;100818.06;;;3.35;90.26
54022;BME280;39936;51.058;17.220;2023-02-02T06:04:24;100837.13;;;3.35;91.38
54022;BME280;39936;51.058;17.220;2023-02-02T06:07:41;100836.09;;;3.34;91.47
54022;BME280;39936;51.058;17.220;2023-02-02T06:11:12;100847.02;;;3.33;91.85
54022;BME280;39936;51.058;17.220;2023-02-02T06:14:32;100843.14;;;3.33;91.84
54022;BME280;39936;51.058;17.220;2023-02-02T06:18:15;100849.54;;;3.32;93.42
54022;BME280;39936;51.058;17.220;2023-02-02T06:21:23;100851.45;;;3.22;94.22
54022;BME280;39936;51.058;17.220;2023-02-02T06:24:45;100860.37;;;3.20;95.57
54022;BME280;39936;51.058;17.220;2023-02-02T06:28:17;100865.66;;;3.17;95.50
54022;BME280;39936;51.058;17.220;2023-02-02T06:31:40;100879.74;;;3.18;96.21
54022;BME280;39936;51.058;17.220;2023-02-02T06:35:13;100872.09;;;3.18;96.64
54022;BME280;39936;51.058;17.220;2023-02-02T06:38:53;100894.86;;;3.11;98.77
54022;BME280;39936;51.058;17.220;2023-02-02T06:42:14;100902.63;;;2.99;100.00
54022;BME280;39936;51.058;17.220;2023-02-02T06:45:23;100890.77;;;2.98;100.00
54022;BME280;39936;51.058;17.220;2023-02-02T06:48:31;100898.88;;;2.90;100.00
54022;BME280;39936;51.058;17.220;2023-02-02T06:51:48;100784.68;;;1.93;100.00
54022;BME280;39936;51.058;17.220;2023-02-02T06:54:57;100919.57;;;2.88;100.00
54022;BME280;39936;51.058;17.220;2023-02-02T06:58:30;100924.47;;;2.90;100.00
54022;BME280;39936;51.058;17.220;2023-02-02T07:00:11;100925.46;;;2.91;100.00
54022;BME280;39936;51.058;17.220;2023-02-02T07:03:31;100934.53;;;2.90;100.00
54022;BME280;39936;51.058;17.220;2023-02-02T07:07:18;100928.34;;;2.90;100.00
54022;BME280;39936;51.058;17.220;2023-02-02T07:10:38;100933.31;;;2.91;100.00
54022;BME280;39936;51.058;17.220;2023-02-02T07:14:29;100945.26;;;2.94;100.00
54022;BME280;39936;51.058;17.220;2023-02-02T07:18:46;100943.92;;;2.98;100.00
54022;BME280;39936;51.058;17.220;2023-02-02T07:22:01;100952.41;;;3.01;100.00
54022;BME280;39936;51.058;17.220;2023-02-02T07:25:09;100957.89;;;3.04;100.00
54022;BME280;39936;51.058;17.220;2023-02-02T07:28:42;100967.30;;;3.03;100.00
54022;BME280;39936;51.058;17.220;2023-02-02T07:31:47;100958.48;;;3.06;100.00
54022;BME280;39936;51.058;17.220;2023-02-02T07:34:54;100966.58;;;3.05;100.00
54022;BME280;39936;51.058;17.220;2023-02-02T07:38:24;100973.25;;;3.07;100.00
54022;BME280;39936;51.058;17.220;2023-02-02T07:41:34;100982.54;;;3.10;100.00
54022;BME280;39936;51.058;17.220;2023-02-02T07:44:55;100976.35;;;3.11;100.00
54022;BME280;39936;51.058;17.220;2023-02-02T07:52:00;100985.79;;;3.13;100.00
54022;BME280;39936;51.058;17.220;2023-02-02T07:55:37;100999.13;;;3.09;100.00
54022;BME280;39936;51.058;17.220;2023-02-02T07:58:57;101001.20;;;3.05;100.00
54022;BME280;39936;51.058;17.220;2023-02-02T08:02:37;101004.97;;;3.04;100.00
54022;BME280;39936;51.058;17.220;2023-02-02T08:06:24;101011.59;;;3.11;100.00
54022;BME280;39936;51.058;17.220;2023-02-02T08:09:38;101009.73;;;3.18;99.53
54022;BME280;39936;51.058;17.220;2023-02-02T08:13:01;101000.07;;;3.31;96.38
54022;BME280;39936;51.058;17.220;2023-02-02T08:16:42;101031.62;;;3.39;96.47
54022;BME280;39936;51.058;17.220;2023-02-02T08:20:43;101045.31;;;3.42;97.80
54022;BME280;39936;51.058;17.220;2023-02-02T08:23:48;101051.08;;;3.41;97.20
54022;BME280;39936;51.058;17.220;2023-02-02T08:27:07;101027.02;;;3.20;97.40
54022;BME280;39936;51.058;17.220;2023-02-02T08:30:36;101050.63;;;3.43;96.73
54022;BME280;39936;51.058;17.220;2023-02-02T08:33:58;101051.08;;;3.42;97.85
54022;BME280;39936;51.058;17.220;2023-02-02T08:37:48;101074.95;;;3.46;96.77
54022;BME280;39936;51.058;17.220;2023-02-02T08:41:05;100960.97;;;2.71;96.89
54022;BME280;39936;51.058;17.220;2023-02-02T08:44:48;101061.88;;;3.22;97.47
54022;BME280;39936;51.058;17.220;2023-02-02T08:48:01;101108.91;;;3.38;99.57
54022;BME280;39936;51.058;17.220;2023-02-02T08:51:12;101074.86;;;3.00;100.00
54022;BME280;39936;51.058;17.220;2023-02-02T08:54:20;101116.84;;;3.19;100.00
54022;BME280;39936;51.058;17.220;2023-02-02T08:57:27;101112.50;;;3.14;100.00
54022;BME280;39936;51.058;17.220;2023-02-02T09:01:21;101109.93;;;3.16;100.00
54022;BME280;39936;51.058;17.220;2023-02-02T09:04:45;101114.74;;;3.25;100.00
54022;BME280;39936;51.058;17.220;2023-02-02T09:08:00;101133.20;;;3.34;100.00
54022;BME280;39936;51.058;17.220;2023-02-02T09:20:22;101144.98;;;3.34;98.22
54022;BME280;39936;51.058;17.220;2023-02-02T09:23:34;101168.98;;;3.27;100.00
54022;BME280;39936;51.058;17.220;2023-02-02T09:27:02;101168.99;;;3.07;100.00
54022;BME280;39936;51.058;17.220;2023-02-02T09:30:26;101192.54;;;2.94;100.00
54022;BME280;39936;51.058;17.220;2023-02-02T09:33:36;101197.09;;;2.88;100.00
54022;BME280;39936;51.058;17.220;2023-02-02T09:36:43;101205.19;;;2.81;100.00
54022;BME280;39936;51.058;17.220;2023-02-02T09:40:17;101212.80;;;2.73;100.00
54022;BME280;39936;51.058;17.220;2023-02-02T09:43:49;101222.12;;;2.59;100.00
54022;BME280;39936;51.058;17.220;2023-02-02T09:54:04;101240.11;;;2.56;100.00
54022;BME280;39936;51.058;17.220;2023-02-02T09:57:48;101241.27;;;2.51;100.00
54022;BME280;39936;51.058;17.220;2023-02-02T10:04:45;101246.77;;;2.63;100.00
54022;BME280;39936;51.058;17.220;2023-02-02T10:08:01;101238.84;;;2.64;100.00
54022;BME280;39936;51.058;17.220;2023-02-02T10:16:11;101251.23;;;2.85;100.00
54022;BME280;39936;51.058;17.220;2023-02-02T10:19:20;101267.23;;;2.91;100.00
54022;BME280;39936;51.058;17.220;2023-02-02T10:22:42;101259.23;;;2.90;100.00
54022;BME280;39936;51.058;17.220;2023-02-02T10:25:56;101261.79;;;2.90;100.00
54022;BME280;39936;51.058;17.220;2023-02-02T10:29:47;101282.62;;;2.98;100.00
54022;BME280;39936;51.058;17.220;2023-02-02T10:33:36;101278.02;;;3.00;100.00
54022;BME280;39936;51.058;17.220;2023-02-02T10:37:20;101266.76;;;2.94;100.00
54022;BME280;39936;51.058;17.220;2023-02-02T10:45:20;101109.13;;;1.95;100.00
54022;BME280;39936;51.058;17.220;2023-02-02T10:48:30;101276.47;;;3.30;100.00
54022;BME280;39936;51.058;17.220;2023-02-02T10:52:36;101286.84;;;3.41;100.00
54022;BME280;39936;51.058;17.220;2023-02-02T10:59:33;101308.57;;;3.33;100.00
54022;BME280;39936;51.058;17.220;2023-02-02T11:02:57;101317.54;;;3.35;100.00
54022;BME280;39936;51.058;17.220;2023-02-02T11:06:44;101326.92;;;3.39;100.00
54022;BME280;39936;51.058;17.220;2023-02-02T11:10:18;101324.37;;;3.43;99.98
54022;BME280;39936;51.058;17.220;2023-02-02T11:14:12;101325.24;;;3.51;99.82
54022;BME280;39936;51.058;17.220;2023-02-02T11:17:22;101330.88;;;3.49;97.70
54022;BME280;39936;51.058;17.220;2023-02-02T11:20:34;101337.65;;;3.61;99.01
54022;BME280;39936;51.058;17.220;2023-02-02T11:30:50;101341.88;;;3.96;95.11
54022;BME280;39936;51.058;17.220;2023-02-02T11:34:34;101348.85;;;4.01;95.79
54022;BME280;39936;51.058;17.220;2023-02-02T11:38:14;101344.95;;;4.04;95.70
54022;BME280;39936;51.058;17.220;2023-02-02T11:41:25;101352.42;;;4.11;95.33
54022;BME280;39936;51.058;17.220;2023-02-02T11:48:21;101339.28;;;4.13;90.59
54022;BME280;39936;51.058;17.220;2023-02-02T11:53:28;101338.70;;;4.26;89.69
54022;BME280;39936;51.058;17.220;2023-02-02T11:56:29;101352.06;;;4.55;87.03
54022;BME280;39936;51.058;17.220;2023-02-02T11:59:40;101346.61;;;4.60;86.57
54022;BME280;39936;51.058;17.220;2023-02-02T12:02:49;101355.70;;;4.45;84.55
54022;BME280;39936;51.058;17.220;2023-02-02T12:06:17;101356.66;;;4.61;89.53
54022;BME280;39936;51.058;17.220;2023-02-02T12:10:00;101350.83;;;4.65;85.44
54022;BME280;39936;51.058;17.220;2023-02-02T12:13:51;101373.17;;;4.46;85.20
54022;BME280;39936;51.058;17.220;2023-02-02T12:18:12;101373.66;;;4.32;85.90
54022;BME280;39936;51.058;17.220;2023-02-02T12:43:18;101428.95;;;3.44;97.92
54022;BME280;39936;51.058;17.220;2023-02-02T12:54:42;101437.94;;;3.11;100.00
54022;BME280;39936;51.058;17.220;2023-02-02T13:11:45;101463.84;;;2.87;100.00
54022;BME280;39936;51.058;17.220;2023-02-02T13:15:02;101474.77;;;2.87;100.00
54022;BME280;39936;51.058;17.220;2023-02-02T13:18:19;101475.70;;;2.88;100.00
54022;BME280;39936;51.058;17.220;2023-02-02T13:22:41;101459.08;;;2.92;100.00
54022;BME280;39936;51.058;17.220;2023-02-02T13:25:54;101478.57;;;2.93;100.00
54022;BME280;39936;51.058;17.220;2023-02-02T13:29:21;101477.80;;;2.93;100.00
54022;BME280;39936;51.058;17.220;2023-02-02T13:33:15;101473.04;;;2.91;100.00
54022;BME280;39936;51.058;17.220;2023-02-02T13:36:32;101487.23;;;2.97;100.00
54022;BME280;39936;51.058;17.220;2023-02-02T13:43:24;101501.04;;;2.85;100.00
54022;BME280;39936;51.058;17.220;2023-02-02T13:46:50;101518.51;;;2.52;100.00
54022;BME280;39936;51.058;17.220;2023-02-02T13:50:12;101528.92;;;2.23;100.00
54022;BME280;39936;51.058;17.220;2023-02-02T14:01:20;101564.73;;;1.75;100.00
54022;BME280;39936;51.058;17.220;2023-02-02T14:04:29;101558.27;;;1.53;100.00
54022;BME280;39936;51.058;17.220;2023-02-02T14:07:43;101569.88;;;1.38;100.00
54022;BME280;39936;51.058;17.220;2023-02-02T14:11:18;101566.64;;;1.27;100.00
54022;BME280;39936;51.058;17.220;2023-02-02T14:14:52;101574.16;;;1.25;100.00
54022;BME280;39936;51.058;17.220;2023-02-02T14:24:58;101586.29;;;1.48;100.00
54022;BME280;39936;51.058;17.220;2023-02-02T14:28:11;101583.38;;;1.59;100.00
54022;BME280;39936;51.058;17.220;2023-02-02T14:31:26;101585.98;;;1.62;100.00
54022;BME280;39936;51.058;17.220;2023-02-02T14:34:42;101604.83;;;1.67;100.00
54022;BME280;39936;51.058;17.220;2023-02-02T14:49:11;101614.45;;;1.76;100.00
54022;BME280;39936;51.058;17.220;2023-02-02T14:52:24;101626.19;;;1.78;100.00
54022;BME280;39936;51.058;17.220;2023-02-02T14:55:32;101631.84;;;1.73;100.00
54022;BME280;39936;51.058;17.220;2023-02-02T14:59:11;101645.80;;;1.74;100.00
54022;BME280;39936;51.058;17.220;2023-02-02T15:06:04;101668.10;;;1.83;100.00
54022;BME280;39936;51.058;17.220;2023-02-02T15:13:50;101678.20;;;1.87;100.00
54022;BME280;39936;51.058;17.220;2023-02-02T15:20:28;101688.30;;;1.84;100.00
54022;BME280;39936;51.058;17.220;2023-02-02T15:23:50;101688.88;;;1.83;100.00
54022;BME280;39936;51.058;17.220;2023-02-02T15:31:36;101718.21;;;1.75;100.00
54022;BME280;39936;51.058;17.220;2023-02-02T15:34:57;101718.37;;;1.72;100.00
54022;BME280;39936;51.058;17.220;2023-02-02T15:38:11;101722.30;;;1.65;100.00
54022;BME280;39936;51.058;17.220;2023-02-02T15:41:43;101737.69;;;1.64;100.00
54022;BME280;39936;51.058;17.220;2023-02-02T15:48:39;101767.60;;;1.61;100.00
54022;BME280;39936;51.058;17.220;2023-02-02T15:51:54;101769.41;;;1.61;100.00
54022;BME280;39936;51.058;17.220;2023-02-02T15:55:34;101779.21;;;1.67;100.00
54022;BME280;39936;51.058;17.220;2023-02-02T15:58:48;101794.38;;;1.70;99.74
54022;BME280;39936;51.058;17.220;2023-02-02T16:05:23;101815.36;;;1.74;97.00
54022;BME280;39936;51.058;17.220;2023-02-02T16:13:37;101842.49;;;1.73;92.59
54022;BME280;39936;51.058;17.220;2023-02-02T16:17:18;101851.99;;;1.70;92.12
54022;BME280;39936;51.058;17.220;2023-02-02T16:20:27;101873.64;;;1.65;91.61
54022;BME280;39936;51.058;17.220;2023-02-02T16:23:38;101898.70;;;1.60;88.32
54022;BME280;39936;51.058;17.220;2023-02-02T16:27:11;101897.01;;;1.58;85.02
54022;BME280;39936;51.058;17.220;2023-02-02T16:30:27;101912.30;;;1.53;84.55
54022;BME280;39936;51.058;17.220;2023-02-02T16:37:41;101934.43;;;1.26;85.10
54022;BME280;39936;51.058;17.220;2023-02-02T16:41:05;101938.49;;;1.14;84.14
54022;BME280;39936;51.058;17.220;2023-02-02T16:48:59;101955.21;;;1.01;84.66
54022;BME280;39936;51.058;17.220;2023-02-02T16:52:16;101963.41;;;0.96;86.33
54022;BME280;39936;51.058;17.220;2023-02-02T16:55:28;101977.20;;;0.86;86.61
54022;BME280;39936;51.058;17.220;2023-02-02T16:58:55;101977.73;;;0.77;86.89
54022;BME280;39936;51.058;17.220;2023-02-02T17:06:36;101998.21;;;0.82;86.77
54022;BME280;39936;51.058;17.220;2023-02-02T17:13:51;102016.30;;;0.78;85.70
54022;BME280;39936;51.058;17.220;2023-02-02T17:16:59;102024.39;;;0.80;85.70
54022;BME280;39936;51.058;17.220;2023-02-02T17:20:17;102023.91;;;0.78;83.09
54022;BME280;39936;51.058;17.220;2023-02-02T17:23:28;102035.55;;;0.78;82.97
54022;BME280;39936;51.058;17.220;2023-02-02T17:27:01;102039.31;;;0.73;82.07
54022;BME280;39936;51.058;17.220;2023-02-02T17:34:33;102068.11;;;0.67;78.10
54022;BME280;39936;51.058;17.220;2023-02-02T17:38:05;102069.68;;;0.56;78.22
54022;BME280;39936;51.058;17.220;2023-02-02T17:41:31;102078.95;;;0.51;76.63
54022;BME280;39936;51.058;17.220;2023-02-02T17:44:40;102094.07;;;0.54;77.41
54022;BME280;39936;51.058;17.220;2023-02-02T17:47:50;102109.37;;;0.45;76.22
54022;BME280;39936;51.058;17.220;2023-02-02T17:50:59;102115.25;;;0.45;76.64
54022;BME280;39936;51.058;17.220;2023-02-02T17:54:20;102126.10;;;0.44;76.67
54022;BME280;39936;51.058;17.220;2023-02-02T17:57:41;102084.96;;;0.10;76.18
54022;BME280;39936;51.058;17.220;2023-02-02T18:01:39;102136.65;;;0.41;76.61
54022;BME280;39936;51.058;17.220;2023-02-02T18:04:51;102140.73;;;0.45;76.48
54022;BME280;39936;51.058;17.220;2023-02-02T18:08:03;102138.55;;;0.43;76.76
54022;BME280;39936;51.058;17.220;2023-02-02T18:11:28;102146.80;;;0.37;77.02
54022;BME280;39936;51.058;17.220;2023-02-02T18:14:59;102152.37;;;0.37;77.35
54022;BME280;39936;51.058;17.220;2023-02-02T18:18:37;102160.53;;;0.36;77.72
54022;BME280;39936;51.058;17.220;2023-02-02T18:21:54;102171.25;;;0.40;76.86
54022;BME280;39936;51.058;17.220;2023-02-02T18:25:05;102177.57;;;0.42;77.77
54022;BME280;39936;51.058;17.220;2023-02-02T18:28:27;102187.33;;;0.38;77.96
54022;BME280;39936;51.058;17.220;2023-02-02T18:32:29;102192.68;;;0.40;79.34
54022;BME280;39936;51.058;17.220;2023-02-02T18:35:54;102206.54;;;0.46;78.51
54022;BME280;39936;51.058;17.220;2023-02-02T18:39:05;102206.98;;;0.57;78.76
54022;BME280;39936;51.058;17.220;2023-02-02T18:42:26;102222.11;;;0.65;78.66
54022;BME280;39936;51.058;17.220;2023-02-02T18:46:22;102223.74;;;0.76;76.53
54022;BME280;39936;51.058;17.220;2023-02-02T18:49:31;102229.90;;;0.84;74.53
54022;BME280;39936;51.058;17.220;2023-02-02T18:52:57;102239.84;;;0.89;76.25
54022;BME280;39936;51.058;17.220;2023-02-02T18:56:08;102255.66;;;0.85;77.44
54022;BME280;39936;51.058;17.220;2023-02-02T18:59:37;102266.62;;;0.78;76.38
54022;BME280;39936;51.058;17.220;2023-02-02T19:03:07;102281.80;;;0.84;74.67
54022;BME280;39936;51.058;17.220;2023-02-02T19:06:39;102280.79;;;0.90;75.15
54022;BME280;39936;51.058;17.220;2023-02-02T19:09:59;102283.09;;;0.86;76.42
54022;BME280;39936;51.058;17.220;2023-02-02T19:13:19;102297.11;;;0.79;75.66
54022;BME280;39936;51.058;17.220;2023-02-02T19:16:40;102294.41;;;0.81;74.40
54022;BME280;39936;51.058;17.220;2023-02-02T19:20:28;102297.66;;;0.77;76.02
54022;BME280;39936;51.058;17.220;2023-02-02T19:23:37;102296.68;;;0.73;76.53
54022;BME280;39936;51.058;17.220;2023-02-02T19:27:36;102298.41;;;0.73;75.85
54022;BME280;39936;51.058;17.220;2023-02-02T19:30:59;102303.27;;;0.73;75.06
54022;BME280;39936;51.058;17.220;2023-02-02T19:35:00;102305.46;;;0.75;75.70
54022;BME280;39936;51.058;17.220;2023-02-02T19:38:13;102313.97;;;0.75;76.03
54022;BME280;39936;51.058;17.220;2023-02-02T19:41:25;102305.08;;;0.66;76.00
54022;BME280;39936;51.058;17.220;2023-02-02T19:45:11;102317.31;;;0.69;77.22
54022;BME280;39936;51.058;17.220;2023-02-02T19:51:57;102331.23;;;0.60;78.62
54022;BME280;39936;51.058;17.220;2023-02-02T19:55:20;102336.33;;;0.58;78.85
54022;BME280;39936;51.058;17.220;2023-02-02T19:59:09;102339.62;;;0.57;79.90
54022;BME280;39936;51.058;17.220;2023-02-02T20:05:56;102353.59;;;0.57;78.75
54022;BME280;39936;51.058;17.220;2023-02-02T20:09:20;102353.38;;;0.57;79.13
54022;BME280;39936;51.058;17.220;2023-02-02T20:16:33;102332.48;;;0.34;77.94
54022;BME280;39936;51.058;17.220;2023-02-02T20:20:22;102348.05;;;0.29;79.01
54022;BME280;39936;51.058;17.220;2023-02-02T20:27:34;102403.73;;;0.48;79.30
54022;BME280;39936;51.058;17.220;2023-02-02T20:30:41;102403.93;;;0.46;79.87
54022;BME280;39936;51.058;17.220;2023-02-02T20:34:28;102417.34;;;0.43;79.95
54022;BME280;39936;51.058;17.220;2023-02-02T20:37:40;102416.95;;;0.41;78.98
54022;BME280;39936;51.058;17.220;2023-02-02T20:41:20;102417.26;;;0.39;79.59
54022;BME280;39936;51.058;17.220;2023-02-02T20:44:31;102418.68;;;0.35;79.84
54022;BME280;39936;51.058;17.220;2023-02-02T20:47:41;102421.25;;;0.31;80.72
54022;BME280;39936;51.058;17.220;2023-02-02T20:51:24;102425.43;;;0.23;80.81
54022;BME280;39936;51.058;17.220;2023-02-02T20:54:34;102438.10;;;0.17;81.35
54022;BME280;39936;51.058;17.220;2023-02-02T20:58:39;102439.72;;;0.10;81.85
54022;BME280;39936;51.058;17.220;2023-02-02T21:02:02;102449.23;;;0.09;81.63
54022;BME280;39936;51.058;17.220;2023-02-02T21:05:30;102452.64;;;0.05;82.95
54022;BME280;39936;51.058;17.220;2023-02-02T21:08:45;102452.86;;;0.01;83.87
54022;BME280;39936;51.058;17.220;2023-02-02T21:12:37;102455.65;;;-0.06;84.23
54022;BME280;39936;51.058;17.220;2023-02-02T21:15:46;102454.82;;;-0.09;85.44